createdAt,value
2018-12-29T00:00:47.655Z,54.42
2018-12-29T00:03:18.047Z,53.35
2018-12-29T00:05:48.627Z,51.15
2018-12-29T00:08:19.068Z,49.23
2018-12-29T00:10:49.360Z,49.45
2018-12-29T00:13:19.666Z,49.83
2018-12-29T00:15:50.072Z,52.98
2018-12-29T00:18:20.445Z,49.33
2018-12-29T00:20:50.817Z,51.13
2018-12-29T00:23:21.293Z,53.98
2018-12-29T00:25:51.647Z,56.50
2018-12-29T00:28:21.951Z,55.38
2018-12-29T00:30:52.353Z,53.68
2018-12-29T00:33:22.717Z,54.65
2018-12-29T00:35:53.031Z,54.25
2018-12-29T00:38:23.521Z,62.38
2018-12-29T00:40:53.880Z,54.40
2018-12-29T00:43:24.196Z,52.03
2018-12-29T00:45:54.554Z,52.83
2018-12-29T00:48:24.940Z,54.42
2018-12-29T00:50:55.284Z,57.00
2018-12-29T00:53:25.719Z,55.40
2018-12-29T00:55:56.036Z,51.80
2018-12-29T00:58:26.412Z,52.70
2018-12-29T01:00:56.803Z,57.33
2018-12-29T01:03:27.103Z,57.95
2018-12-29T01:05:57.453Z,57.50
2018-12-29T01:08:28.380Z,57.75
2018-12-29T01:10:58.727Z,58.13
2018-12-29T01:13:29.080Z,55.17
2018-12-29T01:15:59.435Z,56.28
2018-12-29T01:18:29.781Z,55.95
2018-12-29T01:21:00.122Z,58.13
2018-12-29T01:23:30.589Z,55.08
2018-12-29T01:26:00.956Z,59.85
2018-12-29T01:28:31.322Z,58.68
2018-12-29T01:31:01.719Z,56.53
2018-12-29T01:33:32.157Z,60.00
2018-12-29T01:36:02.541Z,59.55
2018-12-29T01:38:33.014Z,57.07
2018-12-29T01:41:04.116Z,54.80
2018-12-29T01:43:34.480Z,59.90
2018-12-29T01:46:04.921Z,57.15
2018-12-29T01:48:35.284Z,56.73
2018-12-29T01:51:05.635Z,65.97
2018-12-29T01:53:36.108Z,68.53
2018-12-29T01:56:06.488Z,65.72
2018-12-29T01:58:36.807Z,65.23
2018-12-29T02:01:09.175Z,63.58
2018-12-29T02:03:39.493Z,58.70
2018-12-29T02:06:09.848Z,50.70
2018-12-29T02:08:40.560Z,48.57
2018-12-29T02:11:10.955Z,36.83
2018-12-29T02:13:41.287Z,32.60
2018-12-29T02:16:11.719Z,25.20
2018-12-29T02:18:42.056Z,23.60
2018-12-29T02:21:12.411Z,26.87
2018-12-29T02:23:42.871Z,17.67
2018-12-29T02:26:13.211Z,13.03
2018-12-29T02:28:43.502Z,10.37
2018-12-29T02:31:13.929Z,9.10
2018-12-29T02:33:44.205Z,10.82
2018-12-29T02:36:14.510Z,16.97
2018-12-29T02:38:44.960Z,23.80
2018-12-29T02:41:15.333Z,23.03
2018-12-29T02:43:45.722Z,25.57
2018-12-29T02:46:16.050Z,17.70
2018-12-29T02:48:46.372Z,15.33
2018-12-29T02:51:16.822Z,14.80
2018-12-29T02:53:47.151Z,15.10
2018-12-29T02:56:17.500Z,15.37
2018-12-29T02:58:47.961Z,14.83
2018-12-29T03:01:18.312Z,14.38
2018-12-29T03:03:48.653Z,13.10
2018-12-29T03:06:20.072Z,12.60
2018-12-29T03:08:50.403Z,11.87
2018-12-29T03:11:20.986Z,12.43
2018-12-29T03:13:51.459Z,11.53
2018-12-29T03:16:21.794Z,10.27
2018-12-29T03:18:52.147Z,10.50
2018-12-29T03:21:22.547Z,12.53
2018-12-29T03:23:52.874Z,11.27
2018-12-29T03:26:23.251Z,11.23
2018-12-29T03:28:53.721Z,10.00
2018-12-29T03:31:24.088Z,10.00
2018-12-29T03:33:54.432Z,10.45
2018-12-29T03:36:24.874Z,9.97
2018-12-29T03:38:55.182Z,9.90
2018-12-29T03:41:25.496Z,9.77
2018-12-29T03:43:56.021Z,9.30
2018-12-29T03:46:26.303Z,9.70
2018-12-29T03:48:56.650Z,8.77
2018-12-29T03:51:27.100Z,7.83
2018-12-29T03:53:57.448Z,7.77
2018-12-29T03:56:27.796Z,9.10
2018-12-29T03:58:58.190Z,8.53
2018-12-29T04:01:28.538Z,9.43
2018-12-29T04:03:58.845Z,9.00
2018-12-29T04:06:29.310Z,9.63
2018-12-29T04:09:30.874Z,8.47
2018-12-29T04:12:02.068Z,7.57
2018-12-29T04:14:32.664Z,8.67
2018-12-29T04:17:02.994Z,7.70
2018-12-29T04:19:33.494Z,8.67
2018-12-29T04:22:03.855Z,7.80
2018-12-29T04:24:34.157Z,7.83
2018-12-29T04:27:04.538Z,8.37
2018-12-29T04:29:34.830Z,8.37
2018-12-29T04:32:05.149Z,7.30
2018-12-29T04:34:35.608Z,8.20
2018-12-29T04:37:05.988Z,9.00
2018-12-29T04:39:36.305Z,9.47
2018-12-29T04:42:06.769Z,11.00
2018-12-29T04:44:37.130Z,16.23
2018-12-29T04:47:07.465Z,20.77
2018-12-29T04:49:37.858Z,17.47
2018-12-29T04:52:08.234Z,19.33
2018-12-29T04:54:38.561Z,22.10
2018-12-29T04:57:09.109Z,31.40
2018-12-29T04:59:39.427Z,40.67
2018-12-29T05:02:09.773Z,35.33
2018-12-29T05:04:40.221Z,28.57
2018-12-29T05:07:10.547Z,22.97
2018-12-29T05:09:40.900Z,18.03
2018-12-29T05:12:11.349Z,17.37
2018-12-29T05:14:41.681Z,16.97
2018-12-29T05:17:12.281Z,13.63
2018-12-29T05:19:42.764Z,11.57
2018-12-29T05:22:13.125Z,10.63
2018-12-29T05:24:43.445Z,8.17
2018-12-29T05:27:13.871Z,8.77
2018-12-29T05:29:44.190Z,7.93
2018-12-29T05:32:14.567Z,7.83
2018-12-29T05:34:45.034Z,7.23
2018-12-29T05:37:15.393Z,7.70
2018-12-29T05:39:45.840Z,6.93
2018-12-29T05:42:17.643Z,6.77
2018-12-29T05:44:47.949Z,7.00
2018-12-29T05:47:18.348Z,7.67
2018-12-29T05:49:49.488Z,9.33
2018-12-29T05:52:19.848Z,7.33
2018-12-29T05:54:50.129Z,9.33
2018-12-29T05:57:20.582Z,7.30
2018-12-29T05:59:50.889Z,7.13
2018-12-29T06:02:21.234Z,7.07
2018-12-29T06:04:51.723Z,6.37
2018-12-29T06:07:22.056Z,5.43
2018-12-29T06:09:52.372Z,5.67
2018-12-29T06:12:22.799Z,5.87
2018-12-29T06:14:54.747Z,5.13
2018-12-29T06:17:25.206Z,6.00
2018-12-29T06:19:58.830Z,5.00
2018-12-29T06:22:30.446Z,5.60
2018-12-29T06:25:01.012Z,5.43
2018-12-29T06:27:31.296Z,5.10
2018-12-29T06:30:01.640Z,6.10
2018-12-29T06:32:32.120Z,5.93
2018-12-29T06:35:02.473Z,5.93
2018-12-29T06:37:32.785Z,6.27
2018-12-29T06:40:03.274Z,6.10
2018-12-29T06:42:33.628Z,6.77
2018-12-29T06:45:03.982Z,7.43
2018-12-29T06:47:34.343Z,7.97
2018-12-29T06:50:05.717Z,6.80
2018-12-29T06:52:36.062Z,6.53
2018-12-29T06:55:06.580Z,6.37
2018-12-29T06:57:36.900Z,7.90
2018-12-29T07:00:09.184Z,7.00
2018-12-29T07:02:39.523Z,6.47
2018-12-29T07:05:09.862Z,5.83
2018-12-29T07:07:40.198Z,6.13
2018-12-29T07:10:10.522Z,6.70
2018-12-29T07:12:40.855Z,6.53
2018-12-29T07:15:11.338Z,5.93
2018-12-29T07:17:41.658Z,6.30
2018-12-29T07:20:12.007Z,6.63
2018-12-29T07:22:42.635Z,6.00
2018-12-29T07:25:12.915Z,6.33
2018-12-29T07:27:43.261Z,6.30
2018-12-29T07:30:13.755Z,6.60
2018-12-29T07:32:44.020Z,6.63
2018-12-29T07:35:15.013Z,6.30
2018-12-29T07:37:45.391Z,7.07
2018-12-29T07:40:15.682Z,6.33
2018-12-29T07:42:46.852Z,5.13
2018-12-29T07:45:17.338Z,5.57
2018-12-29T07:47:47.665Z,6.03
2018-12-29T07:50:18.003Z,4.77
2018-12-29T07:52:48.383Z,5.53
2018-12-29T07:55:18.715Z,5.90
2018-12-29T07:57:49.060Z,5.57
2018-12-29T08:00:19.569Z,6.33
2018-12-29T08:02:49.888Z,5.43
2018-12-29T08:05:20.218Z,5.37
2018-12-29T08:07:50.624Z,4.90
2018-12-29T08:10:20.974Z,5.43
2018-12-29T08:12:51.286Z,5.43
2018-12-29T08:15:21.795Z,5.83
2018-12-29T08:17:52.101Z,6.00
2018-12-29T08:20:22.383Z,6.47
2018-12-29T08:22:52.839Z,6.87
2018-12-29T08:25:23.415Z,8.07
2018-12-29T08:27:53.691Z,7.53
2018-12-29T08:30:24.220Z,8.27
2018-12-29T08:32:54.540Z,8.70
2018-12-29T08:35:24.965Z,9.63
2018-12-29T08:37:55.304Z,12.20
2018-12-29T08:40:25.688Z,11.50
2018-12-29T08:42:55.999Z,10.50
2018-12-29T08:45:26.411Z,10.50
2018-12-29T08:47:56.745Z,11.17
2018-12-29T08:50:27.073Z,14.77
2018-12-29T08:52:57.450Z,13.67
2018-12-29T08:55:27.764Z,14.77
2018-12-29T08:57:58.154Z,13.07
2018-12-29T09:00:28.623Z,14.20
2018-12-29T09:02:58.956Z,13.50
2018-12-29T09:05:29.246Z,18.03
2018-12-29T09:07:59.684Z,15.30
2018-12-29T09:10:30.023Z,15.47
2018-12-29T09:13:19.594Z,14.80
2018-12-29T09:15:49.876Z,12.37
2018-12-29T09:18:20.235Z,13.43
2018-12-29T09:20:50.641Z,14.33
2018-12-29T09:23:20.997Z,14.47
2018-12-29T09:25:51.737Z,16.73
2018-12-29T09:28:22.083Z,19.33
2018-12-29T09:30:52.448Z,17.27
2018-12-29T09:33:22.779Z,19.63
2018-12-29T09:35:53.211Z,16.93
2018-12-29T09:38:23.564Z,16.60
2018-12-29T09:40:53.913Z,16.83
2018-12-29T09:43:24.270Z,18.33
2018-12-29T09:45:54.602Z,15.47
2018-12-29T09:48:24.895Z,16.03
2018-12-29T09:50:55.319Z,17.27
2018-12-29T09:53:25.692Z,16.83
2018-12-29T09:55:55.967Z,16.80
2018-12-29T09:58:26.438Z,16.67
2018-12-29T10:00:56.752Z,19.70
2018-12-29T10:03:27.046Z,18.00
2018-12-29T10:05:57.538Z,17.10
2018-12-29T10:08:27.879Z,20.70
2018-12-29T10:10:58.200Z,17.70
2018-12-29T10:13:28.598Z,17.20
2018-12-29T10:15:58.958Z,15.07
2018-12-29T10:18:29.306Z,18.97
2018-12-29T10:20:59.723Z,18.30
2018-12-29T10:23:30.028Z,17.83
2018-12-29T10:26:00.329Z,18.80
2018-12-29T10:28:31.033Z,18.80
2018-12-29T10:31:01.363Z,20.83
2018-12-29T10:33:31.648Z,17.87
2018-12-29T10:36:02.118Z,17.10
2018-12-29T10:38:32.448Z,19.20
2018-12-29T10:41:02.774Z,16.83
2018-12-29T10:43:33.171Z,16.97
2018-12-29T10:46:03.511Z,16.23
2018-12-29T10:48:33.842Z,15.17
2018-12-29T10:51:04.299Z,13.40
2018-12-29T10:53:34.642Z,13.67
2018-12-29T10:56:04.941Z,11.50
2018-12-29T10:58:35.315Z,11.77
2018-12-29T11:01:05.667Z,17.23
2018-12-29T11:03:36.033Z,12.53
2018-12-29T11:06:06.733Z,11.33
2018-12-29T11:08:37.074Z,11.20
2018-12-29T11:11:07.411Z,11.23
2018-12-29T11:13:37.834Z,15.30
2018-12-29T11:16:08.120Z,13.37
2018-12-29T11:18:38.472Z,12.83
2018-12-29T11:21:09.019Z,13.90
2018-12-29T11:23:39.311Z,12.73
2018-12-29T11:26:09.657Z,10.60
2018-12-29T11:28:40.645Z,11.20
2018-12-29T11:31:10.975Z,10.77
2018-12-29T11:33:41.337Z,10.60
2018-12-29T11:36:11.830Z,11.60
2018-12-29T11:38:42.173Z,12.30
2018-12-29T11:41:12.473Z,11.77
2018-12-29T11:43:42.841Z,11.30
2018-12-29T11:46:13.195Z,14.13
2018-12-29T11:48:43.506Z,12.17
2018-12-29T11:51:13.941Z,13.83
2018-12-29T11:53:44.274Z,13.63
2018-12-29T11:56:14.622Z,13.13
2018-12-29T11:58:45.018Z,14.97
2018-12-29T12:01:15.357Z,14.50
2018-12-29T12:03:45.690Z,13.40
2018-12-29T12:06:16.195Z,12.20
2018-12-29T12:08:46.458Z,12.80
2018-12-29T12:11:16.813Z,13.80
2018-12-29T12:13:47.571Z,11.50
2018-12-29T12:16:17.940Z,14.50
2018-12-29T12:18:48.294Z,14.53
2018-12-29T12:21:18.721Z,12.97
2018-12-29T12:23:49.074Z,13.83
2018-12-29T12:26:19.452Z,16.73
2018-12-29T12:28:50.217Z,15.03
2018-12-29T12:31:20.558Z,15.20
2018-12-29T12:33:50.889Z,12.67
2018-12-29T12:36:21.372Z,15.43
2018-12-29T12:38:51.709Z,16.47
2018-12-29T12:41:22.730Z,16.23
2018-12-29T12:43:53.479Z,19.20
2018-12-29T12:46:23.844Z,17.87
2018-12-29T12:48:54.574Z,20.20
2018-12-29T12:51:25.034Z,16.73
2018-12-29T12:53:55.539Z,17.73
2018-12-29T12:56:25.883Z,16.87
2018-12-29T12:58:56.305Z,17.87
2018-12-29T13:01:27.068Z,17.67
2018-12-29T13:03:57.337Z,17.47
2018-12-29T13:06:27.821Z,15.60
2018-12-29T13:08:58.154Z,15.47
2018-12-29T13:11:28.840Z,15.63
2018-12-29T13:13:59.218Z,15.70
2018-12-29T13:16:29.588Z,14.83
2018-12-29T13:18:59.883Z,14.93
2018-12-29T13:21:30.412Z,15.57
2018-12-29T13:24:00.690Z,15.57
2018-12-29T13:26:31.002Z,15.17
2018-12-29T13:29:02.701Z,14.47
2018-12-29T13:31:33.274Z,15.80
2018-12-29T13:34:03.584Z,15.10
2018-12-29T13:36:34.031Z,14.93
2018-12-29T13:39:05.513Z,15.10
2018-12-29T13:41:35.856Z,16.60
2018-12-29T13:44:07.207Z,15.57
2018-12-29T13:46:37.500Z,18.17
2018-12-29T13:49:07.844Z,20.53
2018-12-29T13:51:38.274Z,18.17
2018-12-29T13:54:08.623Z,16.50
2018-12-29T13:56:38.907Z,16.13
2018-12-29T13:59:09.335Z,17.07
2018-12-29T14:01:39.622Z,16.60
2018-12-29T14:04:10.020Z,14.83
2018-12-29T14:06:40.569Z,14.43
2018-12-29T14:09:10.860Z,15.93
2018-12-29T14:11:41.147Z,17.23
2018-12-29T14:14:11.569Z,14.93
2018-12-29T14:16:42.332Z,15.03
2018-12-29T14:19:12.760Z,15.97
2018-12-29T14:21:43.103Z,16.60
2018-12-29T14:24:13.408Z,18.27
2018-12-29T14:26:43.896Z,16.47
2018-12-29T14:29:14.337Z,16.53
2018-12-29T14:31:44.916Z,15.80
2018-12-29T14:34:15.312Z,15.13
2018-12-29T14:36:45.666Z,10.43
2018-12-29T14:39:16.040Z,45.17
2018-12-29T14:41:46.490Z,12.63
2018-12-29T14:44:18.449Z,9.23
2018-12-29T14:46:48.909Z,9.80
2018-12-29T14:49:19.693Z,11.63
2018-12-29T14:51:50.038Z,9.90
2018-12-29T14:54:20.469Z,9.80
2018-12-29T14:56:51.446Z,13.27
2018-12-29T14:59:22.344Z,12.10
2018-12-29T15:01:52.701Z,13.73
2018-12-29T15:04:23.122Z,13.62
2018-12-29T15:06:53.520Z,11.53
2018-12-29T15:09:23.909Z,12.63
2018-12-29T15:11:54.241Z,10.68
2018-12-29T15:14:24.730Z,9.03
2018-12-29T15:16:55.099Z,9.78
2018-12-29T15:19:25.478Z,8.93
2018-12-29T15:21:55.875Z,10.13
2018-12-29T15:24:26.231Z,8.25
2018-12-29T15:26:56.589Z,9.35
2018-12-29T15:29:27.135Z,9.45
2018-12-29T15:31:57.689Z,8.70
2018-12-29T15:34:28.045Z,8.60
2018-12-29T15:36:58.421Z,8.30
2018-12-29T15:39:29.353Z,8.63
2018-12-29T15:41:59.707Z,8.83
2018-12-29T15:44:30.344Z,8.80
2018-12-29T15:47:00.831Z,8.05
2018-12-29T15:49:31.213Z,7.58
2018-12-29T15:52:01.605Z,6.33
2018-12-29T15:54:32.493Z,8.95
2018-12-29T15:57:02.879Z,9.63
2018-12-29T15:59:33.773Z,8.73
2018-12-29T16:02:04.057Z,7.83
2018-12-29T16:04:34.359Z,8.95
2018-12-29T16:07:04.810Z,8.95
2018-12-29T16:09:35.688Z,8.73
2018-12-29T16:12:05.974Z,7.78
2018-12-29T16:14:36.459Z,9.48
2018-12-29T16:17:06.784Z,8.35
2018-12-29T16:19:37.145Z,9.83
2018-12-29T16:22:07.552Z,9.40
2018-12-29T16:24:37.878Z,9.30
2018-12-29T16:27:08.508Z,9.30
2018-12-29T16:29:38.982Z,9.43
2018-12-29T16:32:09.926Z,9.78
2018-12-29T16:34:40.335Z,8.20
2018-12-29T16:37:10.776Z,7.75
2018-12-29T16:39:41.304Z,7.60
2018-12-29T16:42:11.629Z,7.17
2018-12-29T16:44:42.077Z,7.90
2018-12-29T16:47:12.489Z,7.83
2018-12-29T16:49:43.234Z,9.33
2018-12-29T16:52:13.612Z,8.75
2018-12-29T16:54:43.888Z,7.65
2018-12-29T16:57:14.212Z,7.50
2018-12-29T16:59:44.635Z,11.08
2018-12-29T17:02:15.615Z,7.20
2018-12-29T17:04:46.037Z,7.10
2018-12-29T17:07:16.448Z,7.15
2018-12-29T17:09:46.788Z,6.97
2018-12-29T17:12:17.363Z,7.33
2018-12-29T17:14:47.840Z,7.10
2018-12-29T17:17:18.237Z,8.40
2018-12-29T17:19:48.660Z,6.55
2018-12-29T17:22:19.270Z,8.88
2018-12-29T17:24:50.984Z,7.37
2018-12-29T17:27:21.419Z,8.03
2018-12-29T17:29:52.473Z,8.18
2018-12-29T17:32:22.990Z,7.35
2018-12-29T17:34:53.336Z,9.95
2018-12-29T17:37:23.874Z,6.45
2018-12-29T17:39:54.188Z,7.72
2018-12-29T17:42:24.876Z,6.05
2018-12-29T17:44:55.291Z,8.13
2018-12-29T17:47:25.616Z,6.60
2018-12-29T17:49:56.030Z,6.78
2018-12-29T17:52:26.391Z,8.38
2018-12-29T17:54:57.190Z,6.22
2018-12-29T17:57:27.532Z,6.12
2018-12-29T17:59:57.966Z,6.62
2018-12-29T18:02:28.278Z,6.90
2018-12-29T18:04:58.623Z,7.53
2018-12-29T18:07:29.189Z,8.23
2018-12-29T18:09:59.554Z,7.50
2018-12-29T18:12:29.904Z,7.00
2018-12-29T18:15:00.383Z,6.72
2018-12-29T18:17:30.752Z,8.30
2018-12-29T18:20:01.125Z,8.35
2018-12-29T18:22:31.645Z,7.72
2018-12-29T18:25:02.384Z,8.90
2018-12-29T18:27:32.712Z,5.90
2018-12-29T18:30:03.243Z,5.80
2018-12-29T18:32:33.978Z,7.72
2018-12-29T18:35:04.345Z,5.83
2018-12-29T18:37:34.882Z,6.58
2018-12-29T18:40:06.543Z,5.95
2018-12-29T18:42:36.830Z,6.35
2018-12-29T18:45:07.631Z,7.33
2018-12-29T18:47:37.995Z,6.65
2018-12-29T18:50:08.377Z,6.05
2018-12-29T18:52:38.801Z,5.72
2018-12-29T18:55:09.326Z,5.67
2018-12-29T18:57:39.649Z,6.20
2018-12-29T19:00:10.145Z,8.13
2018-12-29T19:02:40.480Z,8.45
2018-12-29T19:05:10.765Z,7.50
2018-12-29T19:07:41.201Z,6.47
2018-12-29T19:10:14.716Z,6.90
2018-12-29T19:12:45.119Z,7.00
2018-12-29T19:15:15.649Z,6.10
2018-12-29T19:17:46.544Z,6.03
2018-12-29T19:20:17.489Z,5.00
2018-12-29T19:22:47.837Z,7.37
2018-12-29T19:25:18.169Z,6.72
2018-12-29T19:27:48.685Z,6.78
2018-12-29T19:30:19.522Z,7.08
2018-12-29T19:32:50.654Z,8.95
2018-12-29T19:35:21.398Z,6.45
2018-12-29T19:37:51.726Z,8.20
2018-12-29T19:40:22.066Z,5.30
2018-12-29T19:42:52.610Z,6.03
2018-12-29T19:45:23.525Z,6.62
2018-12-29T19:47:54.408Z,6.17
2018-12-29T19:50:25.369Z,7.03
2018-12-29T19:52:55.750Z,7.78
2018-12-29T19:55:26.185Z,6.85
2018-12-29T19:57:56.567Z,6.42
2018-12-29T20:00:27.394Z,5.22
2018-12-29T20:02:57.694Z,6.33
2018-12-29T20:05:28.586Z,7.10
2018-12-29T20:07:58.904Z,6.05
2018-12-29T20:10:29.226Z,7.25
2018-12-29T20:12:59.666Z,6.28
2018-12-29T20:15:29.941Z,5.80
2018-12-29T20:18:00.323Z,6.28
2018-12-29T20:20:30.861Z,5.95
2018-12-29T20:23:01.188Z,5.78
2018-12-29T20:25:32.023Z,5.50
2018-12-29T20:28:02.440Z,5.15
2018-12-29T20:30:32.768Z,5.65
2018-12-29T20:33:03.121Z,5.40
2018-12-29T20:35:33.551Z,9.63
2018-12-29T20:38:04.064Z,5.90
2018-12-29T20:40:34.378Z,5.20
2018-12-29T20:43:05.137Z,6.15
2018-12-29T20:45:35.513Z,6.00
2018-12-29T20:48:05.858Z,5.10
2018-12-29T20:50:36.313Z,6.40
2018-12-29T20:53:06.640Z,5.67
2018-12-29T20:55:37.028Z,5.30
2018-12-29T20:58:07.448Z,5.03
2018-12-29T21:00:38.177Z,5.62
2018-12-29T21:03:08.547Z,4.35
2018-12-29T21:05:39.021Z,4.92
2018-12-29T21:08:09.362Z,6.05
2018-12-29T21:10:39.725Z,5.17
2018-12-29T21:13:10.841Z,4.47
2018-12-29T21:15:41.199Z,4.53
2018-12-29T21:18:11.530Z,4.20
2018-12-29T21:20:42.027Z,6.08
2018-12-29T21:23:12.351Z,4.30
2018-12-29T21:25:42.880Z,5.17
2018-12-29T21:28:13.318Z,5.50
2018-12-29T21:30:43.697Z,5.00
2018-12-29T21:33:14.020Z,4.22
2018-12-29T21:35:44.489Z,5.90
2018-12-29T21:38:14.826Z,7.47
2018-12-29T21:40:45.889Z,6.30
2018-12-29T21:43:16.367Z,4.53
2018-12-29T21:45:46.689Z,4.25
2018-12-29T21:48:16.969Z,5.65
2018-12-29T21:50:47.465Z,4.67
2018-12-29T21:53:17.925Z,4.75
2018-12-29T21:55:48.236Z,4.55
2018-12-29T21:58:18.630Z,4.42
2018-12-29T22:00:48.952Z,4.97
2018-12-29T22:03:19.315Z,8.00
2018-12-29T22:05:49.880Z,5.67
2018-12-29T22:08:20.210Z,4.58
2018-12-29T22:10:50.553Z,4.65
2018-12-29T22:13:20.947Z,4.83
2018-12-29T22:15:51.275Z,6.25
2018-12-29T22:18:21.596Z,4.62
2018-12-29T22:20:52.011Z,4.97
2018-12-29T22:23:22.350Z,4.83
2018-12-29T22:25:53.437Z,5.00
2018-12-29T22:28:24.094Z,5.22
2018-12-29T22:30:54.471Z,5.33
2018-12-29T22:33:24.836Z,5.35
2018-12-29T22:35:55.375Z,5.67
2018-12-29T22:38:26.024Z,5.50
2018-12-29T22:40:56.322Z,5.30
2018-12-29T22:43:27.133Z,4.70
2018-12-29T22:45:57.406Z,4.87
2018-12-29T22:48:27.739Z,5.30
2018-12-29T22:50:58.253Z,6.17
2018-12-29T22:53:28.721Z,5.00
2018-12-29T22:56:01.623Z,9.48
2018-12-29T22:58:35.508Z,5.95
2018-12-29T23:01:06.362Z,5.35
2018-12-29T23:03:37.051Z,4.53
2018-12-29T23:06:07.550Z,5.45
2018-12-29T23:08:37.977Z,6.00
2018-12-29T23:11:08.970Z,5.00
2018-12-29T23:13:39.389Z,5.22
2018-12-29T23:16:09.749Z,7.33
2018-12-29T23:18:40.158Z,8.25
2018-12-29T23:21:10.577Z,10.82
2018-12-29T23:23:40.871Z,7.53
2018-12-29T23:26:11.208Z,5.95
2018-12-29T23:28:41.649Z,9.25
2018-12-29T23:31:12.108Z,7.90
2018-12-29T23:33:42.391Z,7.10
2018-12-29T23:36:13.887Z,6.10
2018-12-29T23:38:44.256Z,5.87
2018-12-29T23:41:14.659Z,5.22
2018-12-29T23:43:45.683Z,5.70
2018-12-29T23:46:16.463Z,5.25
2018-12-29T23:48:46.903Z,5.20
2018-12-29T23:51:17.436Z,6.15
2018-12-29T23:53:47.790Z,5.10
2018-12-29T23:56:18.815Z,5.30
2018-12-29T23:58:49.318Z,5.22
